Time;durP1;ratioP1;P1;durP2;ratioP2;P2;SDS_P1;SDS_P2;PMS_P1;PMS_P2;Temp;Humidity;BMP_temperature;BMP_pressure;BME280_temperature;BME280_humidity;BME280_pressure;Samples;Min_cycle;Max_cycle;Signal;HPM_P1;HPM_P2
2023/01/15 00:00:44;;;;;;;1.77;0.43;;;;;;;10.56;100.00;98936.94;4994843;28;20273;-74
2023/01/15 00:03:09;;;;;;;0.90;0.47;;;;;;;10.61;100.00;98935.03;4993528;28;20222;-76
2023/01/15 00:05:35;;;;;;;0.80;0.50;;;;;;;10.67;100.00;98946.03;4994088;28;20578;-75
2023/01/15 00:08:01;;;;;;;0.97;0.60;;;;;;;10.71;100.00;98938.19;4994261;28;20192;-75
2023/01/15 00:10:27;;;;;;;0.37;0.30;;;;;;;10.73;100.00;98944.16;4993934;28;20189;-75
2023/01/15 00:12:52;;;;;;;0.50;0.40;;;;;;;10.74;100.00;98933.75;4999661;28;20192;-76
2023/01/15 00:15:17;;;;;;;0.97;0.47;;;;;;;10.72;100.00;98920.03;4996142;28;20734;-75
2023/01/15 00:17:43;;;;;;;0.97;0.40;;;;;;;10.72;100.00;98934.72;4990487;28;20185;-74
2023/01/15 00:20:10;;;;;;;0.70;0.40;;;;;;;10.73;100.00;98915.69;4993610;28;20834;-77
2023/01/15 00:22:36;;;;;;;0.50;0.40;;;;;;;10.75;100.00;98932.03;4999399;28;20190;-75
2023/01/15 00:27:45;;;;;;;0.37;0.30;;;;;;;10.78;100.00;98913.81;4992650;28;20225;-77
2023/01/15 00:30:13;;;;;;;1.20;0.60;;;;;;;10.78;100.00;98916.41;4996598;28;20974;-76
2023/01/15 00:32:40;;;;;;;1.63;0.50;;;;;;;10.82;100.00;98902.44;4991788;28;20178;-75
2023/01/15 00:35:05;;;;;;;0.50;0.43;;;;;;;10.78;100.00;98906.88;4994358;28;20190;-77
2023/01/15 00:37:31;;;;;;;1.50;0.60;;;;;;;10.78;100.00;98896.53;4998099;28;20191;-76
2023/01/15 00:39:56;;;;;;;0.93;0.30;;;;;;;10.79;100.00;98885.28;4995193;28;20184;-77
2023/01/15 00:42:21;;;;;;;0.30;0.30;;;;;;;10.79;100.00;98880.13;4994824;28;20552;-76
2023/01/15 00:44:47;;;;;;;1.23;0.40;;;;;;;10.82;100.00;98873.97;4995070;28;20243;-73
2023/01/15 00:47:13;;;;;;;1.63;0.43;;;;;;;10.85;100.00;98886.00;4993460;28;20240;-75
2023/01/15 00:49:40;;;;;;;0.60;0.50;;;;;;;10.86;100.00;98888.53;4994092;28;20233;-74
2023/01/15 00:52:05;;;;;;;0.57;0.40;;;;;;;10.86;100.00;98888.53;4990874;28;20312;-75
2023/01/15 00:54:32;;;;;;;1.90;0.47;;;;;;;10.89;100.00;98879.84;5001092;28;20712;-74
2023/01/15 00:56:57;;;;;;;0.60;0.40;;;;;;;10.92;100.00;98869.34;4995852;28;20235;-75
2023/01/15 00:59:23;;;;;;;0.73;0.40;;;;;;;10.89;100.00;98857.38;4991038;28;20272;-75
2023/01/15 01:01:49;;;;;;;0.53;0.50;;;;;;;10.90;100.00;98864.25;4999843;28;20194;-75
2023/01/15 01:04:14;;;;;;;0.70;0.50;;;;;;;10.90;100.00;98859.06;4997568;28;20225;-76
2023/01/15 01:06:39;;;;;;;0.93;0.60;;;;;;;10.91;100.00;98863.34;4996094;28;20244;-76
2023/01/15 01:09:05;;;;;;;0.50;0.40;;;;;;;10.84;100.00;98846.31;4995699;28;20212;-76
2023/01/15 01:11:33;;;;;;;0.40;0.40;;;;;;;10.79;100.00;98838.72;5001785;28;20207;-77
2023/01/15 01:14:00;;;;;;;0.63;0.40;;;;;;;10.78;100.00;98846.53;5021516;28;20194;-76
2023/01/15 01:16:29;;;;;;;0.30;0.30;;;;;;;10.77;100.00;98845.69;5024363;28;20178;-76
2023/01/15 01:18:56;;;;;;;1.30;0.50;;;;;;;10.76;100.00;98844.00;4995705;28;20190;-76
2023/01/15 01:21:21;;;;;;;0.50;0.40;;;;;;;10.75;100.00;98838.88;4992108;28;20198;-76
2023/01/15 01:23:47;;;;;;;0.50;0.40;;;;;;;10.75;100.00;98854.41;4988162;28;20828;-76
2023/01/15 01:26:12;;;;;;;1.53;0.40;;;;;;;10.74;100.00;98863.88;4997386;28;20221;-75
2023/01/15 01:28:38;;;;;;;0.63;0.50;;;;;;;10.75;100.00;98839.72;5002205;28;20201;-76
2023/01/15 01:31:05;;;;;;;0.93;0.47;;;;;;;10.76;100.00;98841.41;4994363;28;20623;-76
2023/01/15 01:33:30;;;;;;;0.37;0.30;;;;;;;10.78;100.00;98838.78;5003579;28;20254;-76
2023/01/15 01:35:55;;;;;;;1.57;0.60;;;;;;;10.79;100.00;98838.72;5003481;28;20188;-76
2023/01/15 01:38:21;;;;;;;0.30;0.30;;;;;;;10.79;100.00;98838.72;5005020;28;20182;-76
2023/01/15 01:40:46;;;;;;;0.40;0.30;;;;;;;10.81;100.00;98834.34;4993866;28;20181;-76
2023/01/15 01:43:26;;;;;;;0.60;0.33;;;;;;;10.82;100.00;98830.84;4993956;28;20214;-76
2023/01/15 01:45:51;;;;;;;0.60;0.40;;;;;;;10.85;100.00;98827.31;5000256;28;20190;-76
2023/01/15 01:48:20;;;;;;;0.90;0.40;;;;;;;10.83;100.00;98831.69;5001315;28;20225;-75
2023/01/15 01:50:48;;;;;;;0.40;0.30;;;;;;;10.80;100.00;98819.69;4994399;28;20649;-75
2023/01/15 01:53:18;;;;;;;0.50;0.23;;;;;;;10.85;100.00;98826.47;4997284;28;20209;-76
2023/01/15 01:55:43;;;;;;;0.30;0.30;;;;;;;10.86;100.00;98829.00;4993396;28;20187;-76
2023/01/15 01:58:11;;;;;;;0.60;0.37;;;;;;;10.82;100.00;98836.03;4997647;28;20280;-76
2023/01/15 02:00:38;;;;;;;0.30;0.30;;;;;;;10.82;100.00;98824.81;4993917;28;20699;-76
2023/01/15 02:03:07;;;;;;;0.30;0.30;;;;;;;10.82;100.00;98825.69;5003841;28;20204;-76
2023/01/15 02:05:37;;;;;;;0.53;0.30;;;;;;;10.83;100.00;98821.34;4997761;28;20220;-75
2023/01/15 02:08:04;;;;;;;0.73;0.30;;;;;;;10.86;100.00;98816.06;5001497;28;20188;-76
2023/01/15 02:10:30;;;;;;;0.40;0.30;;;;;;;10.83;100.00;98810.97;4991450;28;20725;-76
2023/01/15 02:13:17;;;;;;;0.30;0.30;;;;;;;10.80;100.00;98811.94;4990539;28;20302;-76
2023/01/15 02:15:47;;;;;;;0.83;0.37;;;;;;;10.83;100.00;98805.81;4993334;28;20189;-75
2023/01/15 02:18:15;;;;;;;0.60;0.33;;;;;;;10.86;100.00;98799.69;4993992;28;20324;-75
2023/01/15 02:20:49;;;;;;;0.30;0.30;;;;;;;10.83;100.00;98791.13;4994979;28;20221;-76
2023/01/15 02:23:26;;;;;;;0.20;0.20;;;;;;;10.86;100.00;98797.13;5004845;28;20266;-76
2023/01/15 02:26:06;;;;;;;0.30;0.20;;;;;;;10.87;100.00;98791.03;4999361;28;20197;-76
2023/01/15 02:28:36;;;;;;;0.47;0.40;;;;;;;10.85;100.00;98787.66;4996493;28;20749;-76
2023/01/15 02:31:28;;;;;;;0.50;0.30;;;;;;;10.84;100.00;98781.63;4998637;28;20646;-76
2023/01/15 02:34:15;;;;;;;0.43;0.40;;;;;;;10.84;100.00;98784.22;5001601;28;20267;-76
2023/01/15 02:36:46;;;;;;;0.30;0.23;;;;;;;10.83;100.00;98779.94;4995179;28;20195;-75
2023/01/15 02:39:14;;;;;;;0.50;0.27;;;;;;;10.83;100.00;98783.38;5001338;28;20212;-75
2023/01/15 02:41:46;;;;;;;0.77;0.30;;;;;;;10.82;100.00;98775.66;5000352;28;20224;-76
2023/01/15 02:44:15;;;;;;;0.30;0.30;;;;;;;10.78;100.00;98767.16;5000820;28;20219;-76
2023/01/15 02:46:42;;;;;;;0.73;0.30;;;;;;;10.77;100.00;98772.41;5004330;28;20188;-76
2023/01/15 02:49:11;;;;;;;0.30;0.20;;;;;;;10.76;100.00;98745.66;4999401;28;20227;-76
2023/01/15 02:51:43;;;;;;;0.40;0.30;;;;;;;10.76;100.00;98739.66;4994205;28;20201;-76
2023/01/15 02:54:13;;;;;;;0.30;0.30;;;;;;;10.73;100.00;98738.03;4994455;28;20215;-76
2023/01/15 02:56:41;;;;;;;0.30;0.30;;;;;;;10.76;100.00;98747.41;4997610;28;20238;-76
2023/01/15 02:59:12;;;;;;;0.40;0.33;;;;;;;10.79;100.00;98729.19;5005964;28;20221;-76
2023/01/15 03:01:46;;;;;;;0.60;0.40;;;;;;;10.82;100.00;98740.28;4995790;28;20194;-76
2023/01/15 03:04:15;;;;;;;0.10;0.10;;;;;;;10.88;100.00;98728.03;4999430;28;20278;-76
2023/01/15 03:06:48;;;;;;;0.33;0.30;;;;;;;10.91;100.00;98717.53;4999128;28;20193;-76
2023/01/15 03:09:14;;;;;;;0.30;0.30;;;;;;;10.95;100.00;98730.34;5002831;28;20233;-75
2023/01/15 03:11:48;;;;;;;0.40;0.30;;;;;;;10.98;100.00;98730.22;4992117;28;20188;-76
2023/01/15 03:14:54;;;;;;;0.30;0.23;;;;;;;11.04;100.00;98736.91;4989885;28;20637;-76
2023/01/15 03:17:24;;;;;;;0.30;0.20;;;;;;;11.09;100.00;98739.38;4984114;28;20213;-77
2023/01/15 03:19:57;;;;;;;0.47;0.30;;;;;;;11.10;100.00;98747.06;4995337;28;20832;-76
2023/01/15 03:22:27;;;;;;;0.60;0.20;;;;;;;11.10;100.00;98744.47;4992967;28;20197;-76
2023/01/15 03:25:06;;;;;;;0.97;0.50;;;;;;;11.11;100.00;98730.63;5028603;28;20197;-76
2023/01/15 03:27:32;;;;;;;0.83;0.33;;;;;;;11.14;100.00;98755.56;5022180;28;20180;-75
2023/01/15 03:30:02;;;;;;;0.20;0.20;;;;;;;11.12;100.00;98770.28;5001622;28;20216;-77
2023/01/15 03:32:27;;;;;;;1.13;0.40;;;;;;;11.13;100.00;98759.03;5001959;28;20672;-75
2023/01/15 03:34:54;;;;;;;0.30;0.30;;;;;;;11.17;100.00;98770.16;4998401;28;20197;-75
2023/01/15 03:37:23;;;;;;;0.40;0.40;;;;;;;11.18;100.00;98756.31;5002984;28;20254;-77
2023/01/15 03:39:48;;;;;;;0.20;0.20;;;;;;;11.19;100.00;98745.88;4992175;28;20273;-74
2023/01/15 03:42:44;;;;;;;1.17;0.40;;;;;;;11.13;100.00;98759.03;5000603;28;20203;-78
2023/01/15 03:45:27;;;;;;;1.23;0.30;;;;;;;11.13;100.00;98764.22;4995165;28;20290;-76
2023/01/15 03:48:20;;;;;;;0.30;0.30;;;;;;;11.09;100.00;98768.66;4998067;28;20274;-75
2023/01/15 03:50:56;;;;;;;0.63;0.20;;;;;;;11.08;100.00;98785.09;5001008;28;20200;-75
2023/01/15 03:53:40;;;;;;;0.90;0.30;;;;;;;11.01;100.00;98806.94;4998224;28;20209;-75
2023/01/15 03:56:23;;;;;;;0.50;0.40;;;;;;;10.96;100.00;98832.13;5004862;28;20181;-77
2023/01/15 03:58:55;;;;;;;1.20;0.40;;;;;;;10.93;100.00;98860.69;4992750;28;20174;-77
2023/01/15 04:01:27;;;;;;;0.40;0.30;;;;;;;10.89;100.00;98866.91;4994122;28;20199;-77
2023/01/15 04:03:53;;;;;;;1.60;0.40;;;;;;;10.87;100.00;98872.09;4998364;28;20209;-78
2023/01/15 04:06:19;;;;;;;0.70;0.50;;;;;;;10.73;100.00;98906.22;4993356;28;21080;-78
2023/01/15 04:08:46;;;;;;;1.10;0.30;;;;;;;10.62;100.00;98898.78;4996465;28;20211;-75
2023/01/15 04:11:11;;;;;;;0.90;0.30;;;;;;;10.47;100.00;98907.03;4997593;28;20241;-75
2023/01/15 04:13:36;;;;;;;0.87;0.30;;;;;;;10.33;100.00;98907.41;4996385;28;20901;-76
2023/01/15 04:16:02;;;;;;;0.33;0.20;;;;;;;10.21;100.00;98903.44;4996806;28;20614;-76
2023/01/15 04:18:27;;;;;;;0.40;0.20;;;;;;;10.07;100.00;98901.25;4994475;28;20536;-77
2023/01/15 04:20:55;;;;;;;0.57;0.20;;;;;;;9.91;100.00;98906.00;4995826;28;20184;-75
2023/01/15 04:23:21;;;;;;;0.30;0.10;;;;;;;9.76;100.00;98915.06;4997276;28;20221;-74
2023/01/15 04:25:47;;;;;;;0.10;0.10;;;;;;;9.63;100.00;98913.69;4996542;28;20635;-74
2023/01/15 04:28:12;;;;;;;2.23;0.30;;;;;;;9.51;100.00;98918.31;4999244;28;20216;-76
2023/01/15 04:30:37;;;;;;;0.20;0.20;;;;;;;9.43;100.00;98918.53;5000677;28;20739;-75
2023/01/15 04:33:03;;;;;;;0.33;0.20;;;;;;;9.33;100.00;98921.38;4996623;28;20205;-75
2023/01/15 04:35:29;;;;;;;0.17;0.10;;;;;;;9.27;100.00;98930.13;4997505;28;20239;-76
2023/01/15 04:37:59;;;;;;;0.37;0.10;;;;;;;9.20;100.00;98936.31;4997725;28;20188;-76
2023/01/15 04:45:55;;;;;;;0.20;0.20;;;;;;;9.03;100.00;98955.66;4990121;28;20203;-74
2023/01/15 04:48:20;;;;;;;0.20;0.20;;;;;;;8.98;100.00;98960.09;4994092;28;20308;-76
2023/01/15 04:50:45;;;;;;;0.10;0.10;;;;;;;8.93;100.00;98979.97;4995830;28;20617;-75
2023/01/15 04:53:11;;;;;;;1.07;0.20;;;;;;;8.89;100.00;98979.22;4993488;28;20346;-75
2023/01/15 04:55:36;;;;;;;0.30;0.30;;;;;;;8.85;100.00;98973.25;4995285;28;21061;-75
2023/01/15 04:58:01;;;;;;;0.10;0.10;;;;;;;8.84;100.00;98991.38;4995008;28;20663;-75
2023/01/15 05:00:27;;;;;;;0.20;0.20;;;;;;;8.82;100.00;99008.59;4996562;28;20194;-75
2023/01/15 05:02:52;;;;;;;0.13;0.13;;;;;;;8.78;100.00;99007.84;4998155;28;20239;-74
2023/01/15 05:05:17;;;;;;;0.20;0.20;;;;;;;8.75;100.00;99023.38;4993609;28;20245;-74
2023/01/15 05:07:43;;;;;;;0.10;0.10;;;;;;;8.73;100.00;99021.72;4990953;28;20589;-75
2023/01/15 05:10:09;;;;;;;0.10;0.10;;;;;;;8.71;100.00;99028.63;5002057;28;20315;-75
2023/01/15 05:12:34;;;;;;;0.50;0.10;;;;;;;8.67;100.00;99023.53;4992109;28;20235;-75
2023/01/15 05:14:59;;;;;;;0.20;0.20;;;;;;;8.64;100.00;99025.34;4993512;28;20216;-75
2023/01/15 05:17:24;;;;;;;0.10;0.10;;;;;;;8.62;100.00;99032.25;4993057;28;21440;-75
2023/01/15 05:19:50;;;;;;;0.20;0.20;;;;;;;8.60;100.00;99045.19;5002405;28;20187;-76
2023/01/15 05:22:15;;;;;;;0.10;0.10;;;;;;;8.57;100.00;99052.13;4995606;28;20194;-76
2023/01/15 05:24:40;;;;;;;0.20;0.20;;;;;;;8.54;100.00;99051.34;4993818;28;20234;-75
2023/01/15 05:27:05;;;;;;;0.33;0.10;;;;;;;8.49;100.00;99057.44;4996864;28;20196;-76
2023/01/15 05:29:31;;;;;;;0.30;0.10;;;;;;;8.46;100.00;99062.66;4990016;28;20282;-75
2023/01/15 05:31:56;;;;;;;0.20;0.20;;;;;;;8.45;100.00;99081.56;4992632;28;20284;-75
2023/01/15 05:34:22;;;;;;;0.10;0.10;;;;;;;8.40;100.00;99079.06;5006185;28;20227;-75
2023/01/15 05:36:47;;;;;;;0.50;0.20;;;;;;;8.36;100.00;99075.69;5020588;28;20179;-77
2023/01/15 05:39:13;;;;;;;0.10;0.10;;;;;;;8.33;100.00;99064.59;5009355;28;20212;-75
2023/01/15 05:41:50;;;;;;;0.10;0.10;;;;;;;8.29;100.00;99063.81;4995402;28;20193;-76
2023/01/15 05:44:18;;;;;;;0.20;0.20;;;;;;;8.24;100.00;99081.09;4997314;28;20210;-74
2023/01/15 05:46:44;;;;;;;0.20;0.17;;;;;;;8.18;100.00;99078.63;4993020;28;20282;-75
2023/01/15 05:49:13;;;;;;;0.10;0.10;;;;;;;8.13;100.00;99083.88;4994278;28;20230;-77
2023/01/15 05:51:40;;;;;;;0.17;0.17;;;;;;;8.10;100.00;99091.66;4994104;28;20640;-76
2023/01/15 05:54:07;;;;;;;0.37;0.20;;;;;;;8.06;100.00;99096.00;4989815;28;20719;-76
2023/01/15 05:56:36;;;;;;;0.20;0.20;;;;;;;8.02;100.00;99078.06;4994003;28;20189;-74
2023/01/15 05:59:02;;;;;;;0.10;0.10;;;;;;;7.98;100.00;99076.41;4990099;28;20687;-74
2023/01/15 06:01:27;;;;;;;0.10;0.10;;;;;;;7.94;100.00;99091.91;4993063;28;20265;-75
2023/01/15 06:03:54;;;;;;;0.20;0.20;;;;;;;7.91;100.00;99091.13;4994438;28;20205;-76
2023/01/15 06:06:20;;;;;;;0.10;0.10;;;;;;;7.87;100.00;99092.03;4996219;28;20184;-76
2023/01/15 06:08:45;;;;;;;0.10;0.10;;;;;;;7.85;100.00;99104.13;4991479;28;20224;-75
2023/01/15 06:11:11;;;;;;;0.10;0.10;;;;;;;7.83;100.00;99108.44;4993326;28;20693;-75
2023/01/15 06:13:38;;;;;;;0.10;0.10;;;;;;;7.81;100.00;99112.78;4991220;28;20216;-76
2023/01/15 06:16:04;;;;;;;0.50;0.20;;;;;;;7.77;100.00;99124.88;4990609;28;20695;-73
2023/01/15 06:18:30;;;;;;;0.20;0.20;;;;;;;7.72;100.00;99147.25;4995617;28;20194;-75
2023/01/15 06:20:55;;;;;;;0.10;0.10;;;;;;;7.71;100.00;99146.41;4994467;28;20191;-75
2023/01/15 06:23:20;;;;;;;0.10;0.10;;;;;;;7.66;100.00;99150.78;4998577;28;20708;-76
2023/01/15 06:25:46;;;;;;;0.20;0.20;;;;;;;7.62;100.00;99149.13;4990987;28;20192;-75
2023/01/15 06:28:11;;;;;;;0.40;0.33;;;;;;;7.59;100.00;99154.31;4994253;28;20191;-75
2023/01/15 06:30:38;;;;;;;0.27;0.20;;;;;;;7.58;100.00;99155.19;4988181;28;20193;-75
2023/01/15 06:33:04;;;;;;;0.20;0.20;;;;;;;7.55;100.00;99166.38;4991865;28;20306;-75
2023/01/15 06:35:30;;;;;;;0.47;0.20;;;;;;;7.51;100.00;99177.59;4996575;28;20274;-75
2023/01/15 06:37:55;;;;;;;0.17;0.10;;;;;;;7.50;100.00;99185.34;4987394;28;20751;-76
2023/01/15 06:40:22;;;;;;;0.20;0.20;;;;;;;7.47;100.00;99191.41;4992196;28;20244;-76
2023/01/15 06:48:25;;;;;;;0.20;0.20;;;;;;;7.39;100.00;99206.94;5001410;28;20597;-74
2023/01/15 06:50:52;;;;;;;0.30;0.30;;;;;;;7.37;100.00;99206.13;5007273;28;20976;-76
2023/01/15 06:53:18;;;;;;;0.10;0.10;;;;;;;7.35;100.00;99212.13;4992949;28;20205;-76
2023/01/15 06:55:43;;;;;;;0.13;0.10;;;;;;;7.34;100.00;99221.59;4991907;28;20686;-75
2023/01/15 06:58:09;;;;;;;0.33;0.30;;;;;;;7.30;100.00;99231.09;4990185;28;20191;-74
2023/01/15 07:00:34;;;;;;;0.10;0.10;;;;;;;7.29;100.00;99239.66;4994325;28;20207;-75
2023/01/15 07:03:00;;;;;;;0.10;0.10;;;;;;;7.27;100.00;99238.84;4996011;28;20198;-74
2023/01/15 07:05:26;;;;;;;0.50;0.20;;;;;;;7.22;100.00;99232.88;4997092;28;20192;-75
2023/01/15 07:07:52;;;;;;;0.30;0.20;;;;;;;7.21;100.00;99227.75;4994787;28;20763;-75
2023/01/15 07:10:17;;;;;;;0.30;0.20;;;;;;;7.18;100.00;99233.81;5001069;28;20277;-74
2023/01/15 07:12:43;;;;;;;0.40;0.30;;;;;;;7.15;100.00;99262.16;4995472;28;20192;-74
2023/01/15 07:15:09;;;;;;;0.43;0.20;;;;;;;7.14;100.00;99252.72;5000668;28;20741;-75
2023/01/15 07:17:34;;;;;;;0.23;0.20;;;;;;;7.11;100.00;99256.16;4997974;28;20195;-76
2023/01/15 07:20:00;;;;;;;0.20;0.20;;;;;;;7.10;100.00;99248.47;4997384;28;20209;-74
2023/01/15 07:22:25;;;;;;;0.70;0.20;;;;;;;7.07;100.00;99269.94;4994485;28;20194;-75
2023/01/15 07:24:50;;;;;;;0.20;0.20;;;;;;;7.04;100.00;99269.97;4995425;28;20212;-75
2023/01/15 07:27:16;;;;;;;0.20;0.20;;;;;;;7.01;100.00;99260.59;5003471;28;20203;-78
2023/01/15 07:29:41;;;;;;;0.30;0.20;;;;;;;6.99;100.00;99257.16;4996323;28;20219;-75
2023/01/15 07:32:06;;;;;;;0.83;0.20;;;;;;;6.98;100.00;99275.19;5008167;28;20191;-75
2023/01/15 07:34:32;;;;;;;0.40;0.20;;;;;;;6.98;100.00;99277.75;4992178;28;20218;-77
2023/01/15 07:36:57;;;;;;;0.33;0.20;;;;;;;6.97;100.00;99297.50;4997372;28;20285;-77
2023/01/15 07:39:23;;;;;;;0.20;0.20;;;;;;;6.98;100.00;99308.63;4993330;28;20198;-74
2023/01/15 07:50:07;;;;;;;0.47;0.23;;;;;;;6.99;100.00;99328.31;5007796;28;20318;-76
2023/01/15 07:52:32;;;;;;;0.43;0.30;;;;;;;6.99;100.00;99330.91;4996200;28;20698;-75
2023/01/15 07:54:57;;;;;;;0.97;0.47;;;;;;;6.99;100.00;99336.03;4998267;28;20200;-76
2023/01/15 07:57:23;;;;;;;1.33;0.37;;;;;;;6.98;100.00;99334.34;4991127;28;20206;-77
2023/01/15 07:59:50;;;;;;;0.20;0.20;;;;;;;6.98;100.00;99336.91;4988870;28;20184;-77
2023/01/15 08:02:16;;;;;;;0.20;0.20;;;;;;;6.97;100.00;99350.63;4993613;28;20299;-76
2023/01/15 08:04:41;;;;;;;0.20;0.20;;;;;;;6.96;100.00;99346.34;4995691;28;20766;-76
2023/01/15 08:07:07;;;;;;;0.27;0.20;;;;;;;6.93;100.00;99341.28;5000093;28;20184;-75
2023/01/15 08:09:32;;;;;;;0.20;0.20;;;;;;;6.92;100.00;99349.84;4997255;28;20248;-74
2023/01/15 08:17:26;;;;;;;0.57;0.30;;;;;;;6.78;100.00;99378.25;5002078;28;20256;-75
2023/01/15 08:19:52;;;;;;;0.50;0.30;;;;;;;6.75;100.00;99380.84;4995122;28;20184;-75
2023/01/15 08:22:17;;;;;;;0.20;0.20;;;;;;;6.73;100.00;99393.72;5013412;28;20243;-75
2023/01/15 08:24:42;;;;;;;0.40;0.20;;;;;;;6.71;100.00;99391.16;4996630;28;20700;-75
2023/01/15 08:27:08;;;;;;;0.40;0.10;;;;;;;6.70;100.00;99391.16;4996097;28;20189;-76
2023/01/15 08:29:33;;;;;;;0.20;0.20;;;;;;;6.70;100.00;99401.44;4992914;28;20228;-75
2023/01/15 08:31:58;;;;;;;0.20;0.20;;;;;;;6.69;100.00;99402.31;4995618;28;20197;-75
2023/01/15 08:34:24;;;;;;;0.20;0.10;;;;;;;6.69;100.00;99415.16;5000698;28;20208;-75
2023/01/15 08:36:55;;;;;;;0.20;0.20;;;;;;;6.70;100.00;99404.03;4999576;28;20187;-75
2023/01/15 08:39:21;;;;;;;0.30;0.23;;;;;;;6.69;100.00;99410.91;5003174;28;20658;-75
2023/01/15 08:41:46;;;;;;;0.60;0.30;;;;;;;6.68;100.00;99408.31;4998417;28;20186;-74
2023/01/15 08:44:11;;;;;;;0.40;0.40;;;;;;;6.67;100.00;99402.34;5000478;28;20222;-75
2023/01/15 08:46:37;;;;;;;0.23;0.20;;;;;;;6.66;100.00;99410.91;4995697;28;20407;-74
2023/01/15 08:49:02;;;;;;;0.50;0.40;;;;;;;6.67;100.00;99411.75;5016037;28;20226;-73
2023/01/15 08:51:27;;;;;;;0.40;0.30;;;;;;;6.67;100.00;99422.03;4999992;28;20191;-75
2023/01/15 08:53:52;;;;;;;0.30;0.30;;;;;;;6.66;100.00;99425.47;5000589;28;20235;-75
2023/01/15 08:56:19;;;;;;;0.40;0.40;;;;;;;6.70;100.00;99435.75;4998908;28;20194;-74
2023/01/15 08:58:46;;;;;;;0.93;0.53;;;;;;;6.67;100.00;99433.19;5002564;28;20183;-76
2023/01/15 09:01:14;;;;;;;0.40;0.40;;;;;;;6.65;100.00;99434.91;5002445;28;20240;-77
2023/01/15 09:03:41;;;;;;;0.40;0.40;;;;;;;6.63;100.00;99444.34;4993696;28;20214;-74
2023/01/15 09:06:06;;;;;;;1.07;0.40;;;;;;;6.60;100.00;99441.78;4994482;28;20186;-75
2023/01/15 09:08:31;;;;;;;0.40;0.37;;;;;;;6.58;100.00;99453.78;4990332;28;20773;-74
2023/01/15 09:10:58;;;;;;;0.40;0.40;;;;;;;6.56;100.00;99450.41;5000128;28;20188;-74
2023/01/15 09:13:24;;;;;;;0.33;0.30;;;;;;;6.53;100.00;99464.13;4997609;28;20307;-75
2023/01/15 09:15:49;;;;;;;1.17;0.63;;;;;;;6.54;100.00;99464.97;4995961;28;20194;-75
2023/01/15 09:18:18;;;;;;;1.03;0.70;;;;;;;6.52;100.00;99484.69;5002069;28;20198;-74
2023/01/15 09:20:44;;;;;;;0.80;0.40;;;;;;;6.51;100.00;99496.69;4996793;28;20590;-75
2023/01/15 09:23:09;;;;;;;0.50;0.40;;;;;;;6.49;100.00;99501.00;5004471;28;20217;-74
2023/01/15 09:25:34;;;;;;;0.80;0.60;;;;;;;6.47;100.00;99497.56;4999383;28;20674;-73
2023/01/15 09:28:00;;;;;;;1.90;1.00;;;;;;;6.47;100.00;99507.00;5002380;28;20187;-75
2023/01/15 09:30:25;;;;;;;0.60;0.60;;;;;;;6.45;100.00;99507.00;4999215;28;20245;-74
2023/01/15 09:32:50;;;;;;;0.50;0.50;;;;;;;6.44;100.00;99520.72;5001665;28;20782;-74
2023/01/15 09:35:16;;;;;;;0.53;0.30;;;;;;;6.41;100.00;99523.31;4998701;28;20761;-75
2023/01/15 09:37:41;;;;;;;0.30;0.20;;;;;;;6.38;100.00;99520.72;4998925;28;20197;-75
2023/01/15 09:40:35;;;;;;;0.30;0.20;;;;;;;6.37;100.00;99522.47;4996333;28;20237;-75
2023/01/15 09:43:14;;;;;;;0.20;0.20;;;;;;;6.34;100.00;99525.03;5002329;28;20187;-74
2023/01/15 09:45:49;;;;;;;0.43;0.40;;;;;;;6.32;100.00;99533.63;4993194;28;20740;-75
2023/01/15 09:48:14;;;;;;;0.87;0.80;;;;;;;6.28;100.00;99543.03;5004471;28;20215;-74
2023/01/15 09:51:02;;;;;;;1.13;0.93;;;;;;;6.28;100.00;99560.19;4998118;28;20223;-75
2023/01/15 09:53:33;;;;;;;1.30;0.97;;;;;;;6.25;100.00;99559.34;4994172;28;20216;-74
2023/01/15 09:56:01;;;;;;;0.67;0.60;;;;;;;6.26;100.00;99565.34;5035563;28;20175;-76
2023/01/15 09:58:34;;;;;;;2.73;1.23;;;;;;;6.21;100.00;99567.91;5018862;28;20186;-75
2023/01/15 10:01:00;;;;;;;1.07;0.80;;;;;;;6.20;100.00;99560.22;5002750;28;20237;-75
2023/01/15 10:03:41;;;;;;;1.20;0.90;;;;;;;6.20;100.00;99558.47;5000507;28;20206;-75
2023/01/15 10:06:12;;;;;;;1.13;0.90;;;;;;;6.17;100.00;99565.34;5001927;28;20197;-75
2023/01/15 10:08:49;;;;;;;1.23;1.00;;;;;;;6.15;100.00;99578.22;4997359;28;20775;-74
2023/01/15 10:11:14;;;;;;;1.27;0.80;;;;;;;6.12;100.00;99585.91;4996642;28;20181;-75
2023/01/15 10:13:47;;;;;;;3.60;0.87;;;;;;;6.07;100.00;99591.06;4995704;28;20564;-74
2023/01/15 10:16:25;;;;;;;1.17;0.80;;;;;;;6.04;100.00;99598.78;4995262;28;20200;-75
2023/01/15 10:18:51;;;;;;;0.70;0.60;;;;;;;6.01;100.00;99609.03;4994143;28;20196;-75
2023/01/15 10:21:38;;;;;;;0.57;0.50;;;;;;;6.01;100.00;99619.31;4997834;28;20176;-74
2023/01/15 10:24:15;;;;;;;1.23;0.70;;;;;;;5.95;100.00;99619.31;4987753;28;20212;-74
2023/01/15 10:26:55;;;;;;;2.27;1.70;;;;;;;5.93;100.00;99618.47;4987127;28;20193;-76
2023/01/15 10:29:39;;;;;;;2.20;1.40;;;;;;;5.93;100.00;99614.16;4987532;28;20213;-75
2023/01/15 10:32:32;;;;;;;2.67;1.47;;;;;;;5.97;100.00;99627.88;4989051;28;20276;-75
2023/01/15 10:35:01;;;;;;;4.27;2.70;;;;;;;5.97;100.00;99624.44;4976263;28;20262;-75
2023/01/15 10:37:43;;;;;;;2.80;2.13;;;;;;;5.96;100.00;99636.44;4989833;28;20205;-76
2023/01/15 10:40:41;;;;;;;13.03;11.63;;;;;;;5.92;100.00;99633.00;4995521;28;20177;-75
2023/01/15 10:43:43;;;;;;;23.93;19.60;;;;;;;5.88;100.00;99639.00;4993418;28;20264;-76
2023/01/15 10:46:11;;;;;;;11.77;10.53;;;;;;;5.86;100.00;99640.72;4991131;28;20218;-75
2023/01/15 10:48:39;;;;;;;7.33;6.63;;;;;;;5.84;100.00;99638.97;4998076;28;20207;-76
2023/01/15 10:51:20;;;;;;;3.83;3.50;;;;;;;5.82;100.00;99638.16;4992545;28;20281;-74
2023/01/15 10:53:49;;;;;;;2.60;2.40;;;;;;;5.79;100.00;99646.69;5008975;28;20889;-75
2023/01/15 10:56:34;;;;;;;4.90;4.40;;;;;;;5.74;100.00;99645.84;4999325;28;20270;-75
2023/01/15 10:59:26;;;;;;;4.47;4.07;;;;;;;5.71;100.00;99646.69;4997224;28;20191;-75
2023/01/15 11:01:54;;;;;;;3.07;2.87;;;;;;;5.75;100.00;99640.72;4994185;28;20596;-75
2023/01/15 11:04:20;;;;;;;2.00;1.80;;;;;;;5.69;100.00;99650.13;4998541;28;20223;-76
2023/01/15 11:06:46;;;;;;;2.47;2.07;;;;;;;5.64;100.00;99632.16;4993378;28;20204;-75
2023/01/15 11:09:20;;;;;;;1.73;1.50;;;;;;;5.61;100.00;99622.72;5001079;28;20204;-76
2023/01/15 11:20:29;;;;;;;0.93;0.70;;;;;;;5.52;100.00;99609.91;4994140;28;20222;-75
2023/01/15 11:22:56;;;;;;;0.90;0.80;;;;;;;5.53;100.00;99603.91;4989297;28;20185;-75
2023/01/15 11:25:28;;;;;;;2.00;1.13;;;;;;;5.51;100.00;99608.19;4994022;28;20192;-75
2023/01/15 11:27:54;;;;;;;1.13;1.03;;;;;;;5.45;100.00;99603.91;4998665;28;20209;-74
2023/01/15 11:30:37;;;;;;;1.97;1.00;;;;;;;5.46;100.00;99602.19;5005912;28;20227;-75
2023/01/15 11:33:05;;;;;;;1.60;0.87;;;;;;;5.42;100.00;99598.75;5001070;28;20190;-74
2023/01/15 11:35:33;;;;;;;0.67;0.60;;;;;;;5.45;100.00;99608.16;5000975;28;20614;-75
2023/01/15 11:38:06;;;;;;;1.23;0.70;;;;;;;5.47;100.00;99607.31;5000929;28;20181;-74
2023/01/15 11:40:32;;;;;;;1.17;0.67;;;;;;;5.43;100.00;99612.47;4998686;28;20177;-74
2023/01/15 11:51:40;;;;;;;1.23;0.70;;;;;;;5.46;100.00;99621.00;5007310;28;20378;-76
2023/01/15 11:54:11;;;;;;;1.23;0.70;;;;;;;5.45;100.00;99619.31;4997007;28;21805;-75
2023/01/15 11:56:40;;;;;;;1.10;0.77;;;;;;;5.52;100.00;99615.03;4996200;28;20183;-76
2023/01/15 11:59:11;;;;;;;0.80;0.70;;;;;;;5.55;100.00;99607.34;4995945;28;20182;-75
2023/01/15 12:01:46;;;;;;;0.87;0.60;;;;;;;5.60;100.00;99615.88;5007516;28;20174;-75
2023/01/15 12:04:23;;;;;;;1.37;0.63;;;;;;;5.69;100.00;99614.19;5021849;28;20205;-75
2023/01/15 12:06:49;;;;;;;1.30;0.60;;;;;;;5.75;100.00;99620.16;5012676;28;20325;-75
2023/01/15 12:09:21;;;;;;;1.87;0.70;;;;;;;5.87;100.00;99624.47;4995856;28;20943;-74
2023/01/15 12:11:55;;;;;;;2.00;0.80;;;;;;;6.03;100.00;99633.03;4993767;28;20667;-76
2023/01/15 12:14:27;;;;;;;2.30;0.80;;;;;;;6.17;100.00;99625.31;4999171;28;20258;-75
2023/01/15 12:17:24;;;;;;;1.07;0.67;;;;;;;6.34;100.00;99625.25;4994593;28;20186;-75
2023/01/15 12:20:10;;;;;;;0.90;0.60;;;;;;;6.48;100.00;99624.38;4996520;28;20300;-75
2023/01/15 12:22:54;;;;;;;1.40;0.70;;;;;;;6.54;100.00;99620.06;4996686;28;20183;-76